createdAt,value
2023-04-21T00:00:15.236Z,3.90
2023-04-21T00:02:42.704Z,4.50
2023-04-21T00:05:10.321Z,4.30
2023-04-21T00:07:40.163Z,4.10
2023-04-21T00:10:09.137Z,4.40
2023-04-21T00:12:40.808Z,3.60
2023-04-21T00:15:08.741Z,4.70
2023-04-21T00:17:36.299Z,2.90
2023-04-21T00:20:05.231Z,3.90
2023-04-21T00:22:32.329Z,4.30
2023-04-21T00:24:59.000Z,4.20
2023-04-21T00:27:25.655Z,4.10
2023-04-21T00:29:52.391Z,4.40
2023-04-21T00:32:19.158Z,4.60
2023-04-21T00:34:46.384Z,3.90
2023-04-21T00:37:15.128Z,4.00
2023-04-21T00:39:43.880Z,3.80
2023-04-21T00:42:10.962Z,3.90
2023-04-21T00:44:37.799Z,4.40
2023-04-21T00:47:05.433Z,4.00
2023-04-21T00:49:32.730Z,3.60
2023-04-21T00:51:59.384Z,4.20
2023-04-21T00:54:26.109Z,3.60
2023-04-21T00:56:54.705Z,3.70
2023-04-21T00:59:21.515Z,3.80
2023-04-21T01:01:48.302Z,3.50
2023-04-21T01:04:15.270Z,4.00
2023-04-21T01:06:42.493Z,3.90
2023-04-21T01:09:09.203Z,3.80
2023-04-21T01:11:38.209Z,4.50
2023-04-21T01:14:08.007Z,4.10
2023-04-21T01:16:34.892Z,3.20
2023-04-21T01:19:01.711Z,4.70
2023-04-21T01:21:28.795Z,4.20
2023-04-21T01:23:55.510Z,4.30
2023-04-21T01:26:22.346Z,4.10
2023-04-21T01:28:49.193Z,5.10
2023-04-21T01:31:15.997Z,4.70
2023-04-21T01:33:44.187Z,3.30
2023-04-21T01:36:10.908Z,3.70
2023-04-21T01:38:39.188Z,4.70
2023-04-21T01:41:05.869Z,4.30
2023-04-21T01:43:32.630Z,4.40
2023-04-21T01:45:59.562Z,4.20
2023-04-21T01:48:26.355Z,3.70
2023-04-21T01:50:53.232Z,3.60
2023-04-21T01:53:20.020Z,3.50
2023-04-21T01:55:46.832Z,4.70
2023-04-21T01:58:13.625Z,3.40
2023-04-21T02:00:40.646Z,4.20
2023-04-21T02:03:07.638Z,4.20
2023-04-21T02:05:34.870Z,4.50
2023-04-21T02:08:01.942Z,4.50
2023-04-21T02:10:34.235Z,4.40
2023-04-21T02:15:51.605Z,3.30
2023-04-21T02:18:29.118Z,4.30
2023-04-21T02:23:56.339Z,4.00
2023-04-21T02:26:40.665Z,3.30
2023-04-21T02:29:17.964Z,4.30
2023-04-21T02:32:03.074Z,3.60
2023-04-21T02:37:02.894Z,3.70
2023-04-21T02:37:50.489Z,3.30
2023-04-21T02:40:25.043Z,4.30
2023-04-21T02:42:53.223Z,4.60
2023-04-21T02:45:34.749Z,3.90
2023-04-21T02:48:16.725Z,3.50
2023-04-21T02:51:01.157Z,3.70
2023-04-21T02:53:31.353Z,3.90
2023-04-21T02:55:58.500Z,3.60
2023-04-21T02:58:25.127Z,2.90
2023-04-21T03:00:51.850Z,4.10
2023-04-21T03:03:18.948Z,4.10
2023-04-21T03:05:46.030Z,3.80
2023-04-21T03:09:49.204Z,4.80
2023-04-21T03:12:16.626Z,4.10
2023-04-21T03:14:44.644Z,3.50
2023-04-21T03:17:11.348Z,3.90
2023-04-21T03:19:38.061Z,4.10
2023-04-21T03:22:05.950Z,4.20
2023-04-21T03:24:33.473Z,4.30
2023-04-21T03:27:01.321Z,4.90
2023-04-21T03:29:28.264Z,4.90
2023-04-21T03:31:55.016Z,5.00
2023-04-21T03:34:22.446Z,4.90
2023-04-21T03:36:49.098Z,3.90
2023-04-21T03:39:19.979Z,4.30
2023-04-21T03:41:47.696Z,6.90
2023-04-21T03:44:14.415Z,6.10
2023-04-21T03:46:41.079Z,5.80
2023-04-21T03:49:07.831Z,6.00
2023-04-21T03:51:34.575Z,6.00
2023-04-21T03:54:01.295Z,4.70
2023-04-21T03:56:28.439Z,6.00
2023-04-21T03:58:55.182Z,5.10
2023-04-21T04:01:22.495Z,4.80
2023-04-21T04:03:49.399Z,4.80
2023-04-21T04:06:16.303Z,5.60
2023-04-21T04:08:43.174Z,5.30
2023-04-21T04:11:09.914Z,4.60
2023-04-21T04:13:36.659Z,5.90
2023-04-21T04:16:03.736Z,5.70
2023-04-21T04:18:30.813Z,5.60
2023-04-21T04:20:57.499Z,4.50
2023-04-21T04:23:25.528Z,6.00
2023-04-21T04:25:52.281Z,5.60
2023-04-21T04:28:18.889Z,5.90
2023-04-21T04:30:45.631Z,6.00
2023-04-21T04:33:12.323Z,5.70
2023-04-21T04:35:38.979Z,5.90
2023-04-21T04:38:07.093Z,5.30
2023-04-21T04:40:33.822Z,4.90
2023-04-21T04:43:02.140Z,4.80
2023-04-21T04:45:32.416Z,5.40
2023-04-21T04:47:59.651Z,5.70
2023-04-21T04:50:26.602Z,5.40
2023-04-21T04:52:53.404Z,4.80
2023-04-21T04:55:21.582Z,5.50
2023-04-21T04:57:49.657Z,5.50
2023-04-21T05:00:16.687Z,5.50
2023-04-21T05:02:43.636Z,5.00
2023-04-21T05:05:10.515Z,4.70
2023-04-21T05:07:37.776Z,5.00
2023-04-21T05:10:05.209Z,4.60
2023-04-21T05:12:32.362Z,5.30
2023-04-21T05:14:59.232Z,5.10
2023-04-21T05:17:26.741Z,4.40
2023-04-21T05:19:53.400Z,4.90
2023-04-21T05:22:20.275Z,5.40
2023-04-21T05:24:47.620Z,4.90
2023-04-21T05:27:14.264Z,5.40
2023-04-21T05:29:41.090Z,5.00
2023-04-21T05:32:08.584Z,4.60
2023-04-21T05:34:35.856Z,4.20
2023-04-21T05:37:02.653Z,4.40
2023-04-21T05:39:30.120Z,4.80
2023-04-21T05:41:57.309Z,4.50
2023-04-21T05:44:25.034Z,5.50
2023-04-21T05:46:51.764Z,5.30
2023-04-21T05:49:18.671Z,5.50
2023-04-21T05:51:45.650Z,4.60
2023-04-21T05:54:12.900Z,4.00
2023-04-21T05:56:39.583Z,5.00
2023-04-21T05:59:06.585Z,4.70
2023-04-21T06:01:33.399Z,4.20
2023-04-21T06:04:00.525Z,4.10
2023-04-21T06:06:27.625Z,4.30
2023-04-21T06:08:54.966Z,3.80
2023-04-21T06:11:21.845Z,4.50
2023-04-21T06:13:49.715Z,3.70
2023-04-21T06:16:16.681Z,4.40
2023-04-21T06:18:43.470Z,4.20
2023-04-21T06:21:10.465Z,4.20
2023-04-21T06:23:37.103Z,3.90
2023-04-21T06:26:06.349Z,4.10
2023-04-21T06:28:33.903Z,3.50
2023-04-21T06:31:01.215Z,3.70
2023-04-21T06:33:29.256Z,4.20
2023-04-21T06:35:56.165Z,3.90
2023-04-21T06:38:23.164Z,5.30
2023-04-21T06:40:50.328Z,3.60
2023-04-21T06:43:17.391Z,3.80
2023-04-21T06:45:44.533Z,4.60
2023-04-21T06:48:11.416Z,4.20
2023-04-21T06:50:38.273Z,3.70
2023-04-21T06:53:05.153Z,4.20
2023-04-21T06:55:32.045Z,3.90
2023-04-21T06:57:58.977Z,4.20
2023-04-21T07:00:25.726Z,4.20
2023-04-21T07:02:52.701Z,5.00
2023-04-21T07:05:22.807Z,4.60
2023-04-21T07:07:49.757Z,4.60
2023-04-21T07:10:19.352Z,4.30
2023-04-21T07:12:46.948Z,4.20
2023-04-21T07:15:13.677Z,4.60
2023-04-21T07:17:40.752Z,4.70
2023-04-21T07:20:08.437Z,4.00
2023-04-21T07:22:37.120Z,4.40
2023-04-21T07:25:06.774Z,4.50
2023-04-21T07:27:37.787Z,4.00
2023-04-21T07:30:05.355Z,4.20
2023-04-21T07:32:33.085Z,3.90
2023-04-21T07:35:01.329Z,4.10
2023-04-21T07:37:28.364Z,3.50
2023-04-21T07:39:55.245Z,5.00
2023-04-21T07:42:22.272Z,3.70
2023-04-21T07:44:49.366Z,3.60
2023-04-21T07:47:16.304Z,4.40
2023-04-21T07:49:43.097Z,4.00
2023-04-21T07:52:09.976Z,4.30
2023-04-21T07:54:37.295Z,3.80
2023-04-21T07:57:04.104Z,3.60
2023-04-21T07:59:33.057Z,4.10
2023-04-21T08:02:00.213Z,4.20
2023-04-21T08:04:27.657Z,4.60
2023-04-21T08:06:54.503Z,3.90
2023-04-21T08:09:21.450Z,4.10
2023-04-21T08:11:48.425Z,4.00
2023-04-21T08:14:15.820Z,3.80
2023-04-21T08:16:42.621Z,3.90
2023-04-21T08:19:09.641Z,3.50
2023-04-21T08:21:36.622Z,3.60
2023-04-21T08:24:03.731Z,3.80
2023-04-21T08:26:33.256Z,4.20
2023-04-21T08:29:02.713Z,3.80
2023-04-21T08:31:31.198Z,4.00
2023-04-21T08:34:02.362Z,3.40
2023-04-21T08:36:31.247Z,3.60
2023-04-21T08:38:58.680Z,2.90
2023-04-21T08:41:25.847Z,3.80
2023-04-21T08:43:52.631Z,4.40
2023-04-21T08:46:21.509Z,4.20
2023-04-21T08:48:48.454Z,3.40
2023-04-21T08:51:21.237Z,2.90
2023-04-21T08:53:48.269Z,3.10
2023-04-21T08:56:15.289Z,3.60
2023-04-21T08:58:42.238Z,3.30
2023-04-21T09:01:09.033Z,3.70
2023-04-21T09:03:37.986Z,3.20
2023-04-21T09:06:09.465Z,3.70
2023-04-21T09:08:39.378Z,3.60
2023-04-21T09:11:06.498Z,3.30
2023-04-21T09:13:34.811Z,3.50
2023-04-21T09:16:05.096Z,3.30
2023-04-21T09:18:36.533Z,3.50
2023-04-21T09:21:09.053Z,3.50
2023-04-21T09:23:41.031Z,3.10
2023-04-21T09:26:08.246Z,3.20
2023-04-21T09:28:35.243Z,2.90
2023-04-21T09:31:02.057Z,3.40
2023-04-21T09:33:42.291Z,2.80
2023-04-21T09:36:27.284Z,3.00
2023-04-21T09:39:20.714Z,3.20
2023-04-21T09:41:45.145Z,3.10
2023-04-21T09:44:11.932Z,3.10
2023-04-21T09:46:38.809Z,3.00
2023-04-21T09:49:06.329Z,3.50
2023-04-21T09:52:05.325Z,3.60
2023-04-21T09:56:53.087Z,2.60
2023-04-21T09:59:25.193Z,2.90
2023-04-21T10:01:51.949Z,3.10
2023-04-21T10:04:19.065Z,2.80
2023-04-21T10:06:47.350Z,3.00
2023-04-21T10:09:16.264Z,3.70
2023-04-21T10:11:42.908Z,3.50
2023-04-21T10:14:09.635Z,2.50
2023-04-21T10:16:39.435Z,2.60
2023-04-21T10:19:28.531Z,3.10
2023-04-21T10:21:57.009Z,3.20
2023-04-21T10:24:23.927Z,3.00
2023-04-21T10:26:52.481Z,3.10
2023-04-21T10:29:47.828Z,3.30
2023-04-21T10:33:01.461Z,4.10
2023-04-21T10:35:57.862Z,3.90
2023-04-21T10:38:43.388Z,3.50
2023-04-21T10:41:27.565Z,3.80
2023-04-21T10:44:01.743Z,4.10
2023-04-21T10:46:32.059Z,3.50
2023-04-21T10:49:08.971Z,2.90
2023-04-21T10:52:04.720Z,3.30
2023-04-21T10:54:45.012Z,3.30
2023-04-21T10:57:13.536Z,4.00
2023-04-21T10:59:40.756Z,4.00
2023-04-21T11:02:10.523Z,3.60
2023-04-21T11:04:47.265Z,4.10
2023-04-21T11:07:16.369Z,3.50
2023-04-21T11:09:46.703Z,3.70
2023-04-21T11:12:19.608Z,3.60
2023-04-21T11:14:49.357Z,3.90
2023-04-21T11:17:17.595Z,4.30
2023-04-21T11:19:49.574Z,4.30
2023-04-21T11:22:18.298Z,5.10
2023-04-21T11:24:45.673Z,4.30
2023-04-21T11:27:13.999Z,3.40
2023-04-21T11:29:41.404Z,4.10
2023-04-21T11:32:08.516Z,3.90
2023-04-21T11:34:38.924Z,3.60
2023-04-21T11:37:10.075Z,3.70
2023-04-21T11:39:40.258Z,4.50
2023-04-21T11:42:07.776Z,3.80
2023-04-21T11:44:39.187Z,3.60
2023-04-21T11:47:12.358Z,3.90
2023-04-21T11:52:40.923Z,4.20
2023-04-21T11:55:20.189Z,3.20
2023-04-21T11:57:47.519Z,3.40
2023-04-21T12:00:15.174Z,4.50
2023-04-21T12:02:42.528Z,4.10
2023-04-21T12:05:11.271Z,4.00
2023-04-21T12:07:41.546Z,4.20
2023-04-21T12:10:18.218Z,4.10
2023-04-21T12:12:45.873Z,3.60
2023-04-21T12:15:20.809Z,3.70
2023-04-21T12:17:48.149Z,4.50
2023-04-21T12:20:15.594Z,5.00
2023-04-21T12:22:42.337Z,4.10
2023-04-21T12:25:15.197Z,3.80
2023-04-21T12:27:52.120Z,5.20
2023-04-21T12:30:19.624Z,4.30
2023-04-21T12:32:47.581Z,4.50
2023-04-21T12:35:14.493Z,3.70
2023-04-21T12:37:41.162Z,4.00
2023-04-21T12:40:08.375Z,4.50
2023-04-21T12:42:38.021Z,3.30
2023-04-21T12:45:06.267Z,4.30
2023-04-21T12:47:34.254Z,4.10
2023-04-21T12:50:00.961Z,3.60
2023-04-21T12:52:28.227Z,4.40
2023-04-21T12:54:54.923Z,3.70
2023-04-21T12:57:22.270Z,4.40
2023-04-21T12:59:49.140Z,3.00
2023-04-21T13:02:16.290Z,3.20
2023-04-21T13:04:43.208Z,3.70
2023-04-21T13:07:10.199Z,4.30
2023-04-21T13:09:36.872Z,4.20
2023-04-21T13:12:03.603Z,4.20
2023-04-21T13:14:31.097Z,3.60
2023-04-21T13:16:57.882Z,3.50
2023-04-21T13:19:25.094Z,4.70
2023-04-21T13:21:54.041Z,4.20
2023-04-21T13:24:21.597Z,3.70
2023-04-21T13:26:48.504Z,4.30
2023-04-21T13:29:15.545Z,3.90
2023-04-21T13:31:42.374Z,3.70
2023-04-21T13:34:08.992Z,3.90
2023-04-21T13:36:35.756Z,3.30
2023-04-21T13:39:04.929Z,3.50
2023-04-21T13:41:31.557Z,4.10
2023-04-21T13:43:58.364Z,4.10
2023-04-21T13:46:25.056Z,3.60
2023-04-21T13:48:51.836Z,4.00
2023-04-21T13:51:20.291Z,3.70
2023-04-21T13:53:47.438Z,4.20
2023-04-21T13:56:14.336Z,4.70
2023-04-21T13:58:41.303Z,4.50
2023-04-21T14:01:08.285Z,4.20
2023-04-21T14:03:35.986Z,4.00
2023-04-21T14:06:03.112Z,4.10
2023-04-21T14:08:29.816Z,4.60
2023-04-21T14:10:56.973Z,5.20
2023-04-21T14:13:41.865Z,4.50
2023-04-21T14:16:16.670Z,4.50
2023-04-21T14:18:44.821Z,4.20
2023-04-21T14:21:11.737Z,3.90
2023-04-21T14:23:38.594Z,4.60
2023-04-21T14:26:05.597Z,4.00
2023-04-21T14:28:33.503Z,4.30
2023-04-21T14:31:00.410Z,4.10
2023-04-21T14:33:28.429Z,5.60
2023-04-21T14:35:55.729Z,4.00
2023-04-21T14:38:22.985Z,3.80
2023-04-21T14:40:50.686Z,4.00
2023-04-21T14:43:17.440Z,4.80
2023-04-21T14:45:44.191Z,3.70
2023-04-21T14:48:13.490Z,4.90
2023-04-21T14:50:40.880Z,4.10
2023-04-21T14:53:07.908Z,4.00
2023-04-21T14:55:35.208Z,4.60
2023-04-21T14:58:01.894Z,4.90
2023-04-21T15:00:31.076Z,4.30
2023-04-21T15:02:58.303Z,3.80
2023-04-21T15:05:25.128Z,3.90
2023-04-21T15:07:51.904Z,3.80
2023-04-21T15:10:18.851Z,4.00
2023-04-21T15:12:45.774Z,3.40
2023-04-21T15:15:12.434Z,4.10
2023-04-21T15:17:40.011Z,4.20
2023-04-21T15:20:14.771Z,4.50
2023-04-21T15:22:41.590Z,4.00
2023-04-21T15:27:18.284Z,4.30
2023-04-21T15:29:46.560Z,3.50
2023-04-21T15:32:14.665Z,4.90
2023-04-21T15:34:42.816Z,4.70
2023-04-21T15:37:10.916Z,4.20
2023-04-21T15:39:39.382Z,5.00
2023-04-21T15:42:08.677Z,4.70
2023-04-21T15:44:39.351Z,5.40
2023-04-21T15:47:07.959Z,5.30
2023-04-21T15:49:36.836Z,5.00
2023-04-21T15:52:06.789Z,5.80
2023-04-21T15:54:36.655Z,5.00
2023-04-21T15:57:05.945Z,4.40
2023-04-21T15:59:34.418Z,5.10
2023-04-21T16:02:03.315Z,4.40
2023-04-21T16:04:31.923Z,4.60
2023-04-21T16:07:02.885Z,5.30
2023-04-21T16:09:31.348Z,5.30
2023-04-21T16:11:59.515Z,5.70
2023-04-21T16:14:29.072Z,5.50
2023-04-21T16:17:05.392Z,5.00
2023-04-21T16:19:34.928Z,5.40
2023-04-21T16:22:07.340Z,6.30
2023-04-21T16:24:36.061Z,6.80
2023-04-21T16:27:04.929Z,5.60
2023-04-21T16:29:33.214Z,6.00
2023-04-21T16:32:01.729Z,6.00
2023-04-21T16:34:30.511Z,5.90
2023-04-21T16:36:58.638Z,7.30
2023-04-21T16:39:27.837Z,6.30
2023-04-21T16:41:55.909Z,6.30
2023-04-21T16:44:24.031Z,7.10
2023-04-21T16:46:52.422Z,5.60
2023-04-21T16:49:20.704Z,5.20
2023-04-21T16:51:49.311Z,6.10
2023-04-21T16:54:17.468Z,6.60
2023-04-21T16:56:45.948Z,6.20
2023-04-21T16:59:14.219Z,6.60
2023-04-21T17:01:42.494Z,5.80
2023-04-21T17:04:14.125Z,5.30
2023-04-21T17:06:42.643Z,6.30
2023-04-21T17:09:10.751Z,5.80
2023-04-21T17:11:44.723Z,6.70
2023-04-21T17:14:13.903Z,6.00
2023-04-21T17:16:42.057Z,6.10
2023-04-21T17:19:10.186Z,7.00
2023-04-21T17:21:38.214Z,6.60
2023-04-21T17:24:06.449Z,6.80
2023-04-21T17:26:34.513Z,6.90
2023-04-21T17:29:02.728Z,7.20
2023-04-21T17:31:33.221Z,6.70
2023-04-21T17:34:01.475Z,6.60
2023-04-21T17:36:30.008Z,5.70
2023-04-21T17:38:58.633Z,7.40
2023-04-21T17:41:26.985Z,7.60
2023-04-21T17:43:55.025Z,6.80
2023-04-21T17:46:25.029Z,6.40
2023-04-21T17:48:53.813Z,6.40
2023-04-21T17:51:21.937Z,6.50
2023-04-21T17:53:50.090Z,6.20
2023-04-21T17:56:19.020Z,6.50
2023-04-21T17:58:47.182Z,6.40
2023-04-21T18:01:15.622Z,7.60
2023-04-21T18:03:44.391Z,7.70
2023-04-21T18:06:16.091Z,7.40
2023-04-21T18:08:52.459Z,8.70
2023-04-21T18:12:01.994Z,8.00
2023-04-21T18:15:06.788Z,8.00
2023-04-21T18:17:56.832Z,7.30
2023-04-21T18:21:10.240Z,7.00
2023-04-21T18:24:10.382Z,6.20
2023-04-21T18:27:07.403Z,6.80
2023-04-21T18:33:04.612Z,6.70
2023-04-21T18:36:17.272Z,5.90
2023-04-21T18:39:10.771Z,5.60
2023-04-21T18:41:52.082Z,6.10
2023-04-21T18:44:45.640Z,5.30
2023-04-21T18:47:26.228Z,5.50
2023-04-21T18:49:54.311Z,6.50
2023-04-21T18:52:23.578Z,5.90
2023-04-21T18:54:52.545Z,5.70
2023-04-21T18:57:23.547Z,6.30
2023-04-21T18:59:52.744Z,6.20
2023-04-21T19:02:20.996Z,5.90
2023-04-21T19:04:49.870Z,6.40
2023-04-21T19:07:18.701Z,6.90
2023-04-21T19:09:47.265Z,7.00
2023-04-21T19:12:16.045Z,6.90
2023-04-21T19:14:47.479Z,7.60
2023-04-21T19:17:26.270Z,6.60
2023-04-21T19:19:55.710Z,6.20
2023-04-21T19:22:24.412Z,6.40
2023-04-21T19:24:56.065Z,6.70
2023-04-21T19:27:24.167Z,7.80
2023-04-21T19:29:52.208Z,7.60
2023-04-21T19:32:20.837Z,7.90
2023-04-21T19:34:49.564Z,7.80
2023-04-21T19:37:17.854Z,7.70
2023-04-21T19:39:45.871Z,8.50
2023-04-21T19:42:13.957Z,8.60
2023-04-21T19:44:41.917Z,8.30
2023-04-21T19:47:10.319Z,8.00
2023-04-21T19:49:38.504Z,7.80
2023-04-21T19:52:06.890Z,7.00
2023-04-21T19:54:35.740Z,7.50
2023-04-21T19:57:04.109Z,7.00
2023-04-21T19:59:34.734Z,7.60
2023-04-21T20:02:02.832Z,7.90
2023-04-21T20:04:32.231Z,7.50
2023-04-21T20:07:00.470Z,7.60
2023-04-21T20:09:28.833Z,8.20
2023-04-21T20:11:56.883Z,7.60
2023-04-21T20:14:25.404Z,7.00
2023-04-21T20:16:53.417Z,8.40
2023-04-21T20:19:22.918Z,9.40
2023-04-21T20:21:51.165Z,9.00
2023-04-21T20:24:19.510Z,7.90
2023-04-21T20:26:47.606Z,8.20
2023-04-21T20:29:16.216Z,8.40
2023-04-21T20:31:45.561Z,10.50
2023-04-21T20:34:13.890Z,9.60
2023-04-21T20:36:41.997Z,9.30
2023-04-21T20:39:10.088Z,9.30
2023-04-21T20:41:39.066Z,9.60
2023-04-21T20:44:09.204Z,8.10
2023-04-21T20:46:37.800Z,9.40
2023-04-21T20:49:06.185Z,8.00
2023-04-21T20:51:34.570Z,8.20
2023-04-21T20:54:02.787Z,9.50
2023-04-21T20:56:30.953Z,8.80
2023-04-21T20:58:59.143Z,8.00
2023-04-21T21:01:28.729Z,7.20
2023-04-21T21:04:01.437Z,8.60
2023-04-21T21:06:30.941Z,9.20
2023-04-21T21:08:59.419Z,8.10
2023-04-21T21:11:27.548Z,8.60
2023-04-21T21:13:56.291Z,7.60
2023-04-21T21:16:26.921Z,7.70
2023-04-21T21:18:55.181Z,9.20
2023-04-21T21:21:24.021Z,8.60
2023-04-21T21:23:52.185Z,9.60
2023-04-21T21:26:20.644Z,8.10
2023-04-21T21:28:48.855Z,8.70
2023-04-21T21:31:16.957Z,7.70
2023-04-21T21:33:44.916Z,8.50
2023-04-21T21:36:13.048Z,10.20
2023-04-21T21:38:41.543Z,8.60
2023-04-21T21:41:12.353Z,8.50
2023-04-21T21:43:40.500Z,9.20
2023-04-21T21:46:09.103Z,9.50
2023-04-21T21:48:37.366Z,9.20
2023-04-21T21:51:05.828Z,8.60
2023-04-21T21:53:35.035Z,8.60
2023-04-21T21:56:03.239Z,8.30
2023-04-21T21:58:31.635Z,9.50
2023-04-21T22:00:59.931Z,9.00
2023-04-21T22:03:29.076Z,9.10
2023-04-21T22:05:57.584Z,8.20
2023-04-21T22:08:26.175Z,7.40
2023-04-21T22:10:54.264Z,8.40
2023-04-21T22:13:22.380Z,8.20
2023-04-21T22:15:50.864Z,8.10
2023-04-21T22:18:19.438Z,8.00
2023-04-21T22:20:47.659Z,7.20
2023-04-21T22:23:16.596Z,8.40
2023-04-21T22:25:45.393Z,8.50
2023-04-21T22:28:13.692Z,8.10
2023-04-21T22:30:42.155Z,7.70
2023-04-21T22:33:10.349Z,7.30
2023-04-21T22:35:38.668Z,9.00
2023-04-21T22:38:06.710Z,8.20
2023-04-21T22:40:36.154Z,8.80
2023-04-21T22:43:04.159Z,8.10
2023-04-21T22:45:32.516Z,8.40
2023-04-21T22:48:01.005Z,8.20
2023-04-21T22:50:30.029Z,8.10
2023-04-21T22:52:58.192Z,8.00
2023-04-21T22:55:27.337Z,8.50
2023-04-21T22:57:55.471Z,8.00
2023-04-21T23:00:23.795Z,9.30
2023-04-21T23:02:52.044Z,8.60
2023-04-21T23:05:20.474Z,8.00
2023-04-21T23:07:48.547Z,7.60
2023-04-21T23:10:16.554Z,8.50
2023-04-21T23:12:44.931Z,8.30
2023-04-21T23:15:13.186Z,9.10
2023-04-21T23:17:43.038Z,9.10
2023-04-21T23:20:11.634Z,9.30
2023-04-21T23:22:41.168Z,9.10
2023-04-21T23:25:09.570Z,7.40
2023-04-21T23:27:37.712Z,9.40
2023-04-21T23:30:07.276Z,8.50
2023-04-21T23:32:36.750Z,8.80
2023-04-21T23:35:05.365Z,8.30
2023-04-21T23:37:33.805Z,8.60
2023-04-21T23:40:01.989Z,7.30
2023-04-21T23:42:30.760Z,8.30
2023-04-21T23:44:58.919Z,8.60
2023-04-21T23:47:27.358Z,7.70
2023-04-21T23:49:55.670Z,8.10
2023-04-21T23:52:23.730Z,8.70
2023-04-21T23:54:51.886Z,8.00
2023-04-21T23:57:19.949Z,8.40
2023-04-21T23:59:48.098Z,8.00
